Главная страница
METAR-TAF:

METAR-TAF

Аэропорты :

Паго-Паго, Внешние малые острова США

широта: 14-20S, долгота: 170-43W, высота над уровнем моря: 3 м

Текущие метеонаблюдения

Эта сводка был подготовлена 41 минут назад, в 03:50 UTC
Ветер 8 Узел от восточно-юго-восточный
Температура 28°C
Влажность 84%
Давление 1009 hPa
Видимость: 19.3 км
небольшая облачность на высоте 2000 фута
Отдельные облака на высоте 4000 фута
Рассеянная облачность на высоте 10000 фута

METAR: NSTU 240350Z 12008KT 12SM FEW020 SCT040 BKN100 28/25 A2980 RMK SLP091 T02820249

Время: 17:31 (04:31 UTC)

Прогноз

Эта сводка был подготовлена 4 часа и 48 минут назад, в 23:43 UTC
Прогноз действительный с 24-го 00 UTC до 24-го 24 UTC
Ветер 8 Узел от восточно-юго-восточный
Видимость: 10 км
Отдельные облака на высоте 1500 фута
Рассеянная облачность на высоте 4000 фута
Рассеянная облачность на высоте 10000 фута
ливни в окрестностях

TAF: NSTU 232343Z 2400/2424 12008KT P6SM VCSH SCT015 BKN040 BKN100

Метеонаблюдения и прогнозы для более 4000 аэропортов (сводки METAR и TAF).

Имеющиеся станции представлены на карте желтыми и красными точками.

Чтобы увидеть название станции, наведите на нее мышь.

Затем щелкните, чтобы увидеть метеонаблюдения и метеопрогнозы.

Управление картой: чтобы увеличить масштаб, щелкните зеленые кнопки с черным крестиком; чтобы уменьшить масштаб, щелкните зеленую кнопку с тире; для просмотра соседних карт щелкайте зеленые стрелки.


METAR-TAF: